AirNav   Everest Fuels
 
 425 users online  

WN29 Blue Ribbon Airport
Sequim, Washington, USA

GOING TO SEQUIM?


FAA INFORMATION EFFECTIVE 31 JANUARY 2019

Location

FAA Identifier: WN29
Lat/Long: 48-07-48.9000N / 123-12-19.8750W
48-07.815000N / 123-12.331250W
48.1302500 / -123.2055208
(estimated)
Elevation: 103 ft. / 31 m (estimated)
Variation: 21E (1985)
From city: 5 miles NW of SEQUIM, WA
Time zone: UTC -8 (UTC -7 during Daylight Saving Time)
Zip code: 98382

Airport Operations

Airport use: Private use. Permission required prior to landing
Activation date: 01/1983
Control tower: no
ARTCC: SEATTLE CENTER
FSS: SEATTLE FLIGHT SERVICE STATION
Attendance: UNATNDD
Wind indicator: yes
Segmented circle: no

Airport Communications

WX AWOS-3P at NOW (8 nm W): 118.325 (360-457-7529)
WX ASOS at CLM (12 nm W): 135.175 (360-457-1070)
WX AWOS-3P at 0S9 (16 nm E): 119.025 (360-379-1199)

Nearby radio navigation aids

VOR radial/distance  VOR name  Freq  Var
CVVr231/20.4PENN COVE VOR/DME117.2019E
YYJr146/37.5VICTORIA VOR/DME113.7017E
PAEr269/39.3PAINE VOR/DME110.6020E

 
NDB name  Hdg/Dist  Freq  Var  ID
EDIZ HOOK077/7.933817EK -.-
FRIDAY HARBOR181/24.028417EFHR ..-. .... .-.
SKAGIT/BAY VIEW221/37.424016EBVS -... ...- ...

Airport Services

Runway Information

Runway 7/25

Dimensions: 1961 x 60 ft. / 598 x 18 m
Surface: turf, in good condition
RUNWAY 7  RUNWAY 25
Latitude: 48-07.815333N48-07.814667N
Longitude: 123-12.572167W123-12.090333W
Elevation: 103.0 ft.103.0 ft.
Traffic pattern: leftleft
Touchdown point: yes, no lightsyes, no lights

Airport Ownership and Management from official FAA records

Ownership: Privately-owned
Owner: BLUE RIBBON FARMS
363 GREYWOLF ROAD
SEQUIM, WA 98382
Phone (206) 719-7116
PROPERTY OWNERS ASSN., INC.
Manager: DAVID WOODCOCK
402 GREYWOLF ROAD
SEQUIM, WA 98382
Phone (206) 719-7116

Airport Operational Statistics

Aircraft based on the field: 11
Single engine airplanes: 10
Multi engine airplanes: 1
    

Additional Remarks

WILDLIFE (DEER) ON AND IN VCNTY OF ARPT, EAGLES AND SEAGULLS ALSO ON AND IN VCNTY OF ARPT.

Instrument Procedures

There are no published instrument procedures at WN29.

Some nearby airports with instrument procedures:

KNOW - Port Angeles Coast Guard Air Station Airport (8 nm W)
KCLM - William R Fairchild International Airport (12 nm W)
0S9 - Jefferson County International Airport (16 nm E)
KOKH - AJ Eisenberg Airport (22 nm E)
KFHR - Friday Harbor Airport (25 nm N)
 
Loc | Ops | Rwys | IFR | FBO | Links
Com | Nav | Svcs | Stats | Notes
Area around WN29 (Blue Ribbon Airport)
 
Road maps at: MapQuest Bing Google
 
Aerial photo
WARNING: Photo may not be current or correct
Aerial photo of WN29 (Blue Ribbon Airport)
Photo by Dave Woodcock, Greywolf Aerial Photography www.greywolfphotography.com
Taken in June 2005

Do you have a better or more recent aerial photo of Blue Ribbon Airport that you would like to share? If so, please send us your photo.

 
Sectional chart

 
Airport distance calculator
Flying to Blue Ribbon Airport? Find the distance to fly.

From to WN29

Sunrise and sunset
Times for 21-Feb-2019
 Local
(UTC-8)
 Zulu
(UTC)
Morning civil twilight06:3814:38
Sunrise07:1015:10
Sunset17:4301:43
Evening civil twilight18:1502:15

Current date and time
Zulu (UTC)  21-Feb-2019 11:15:43
Local (UTC-8)  21-Feb-2019 03:15:43
 
METAR
KCLM 
12nm W 
211053Z AUTO 00000KT 10SM CLR M03/M03 A3010 RMK AO2 SLP196 I1000 T10281033
CWQK 
15nm NW 
211000Z AUTO 03004KT 05/M02 RMK AO1 SLP192 T00451017 53020
KNOW 
16nm W 
211050Z AUTO 18004KT 10SM CLR 03/01 A3011 RMK AO2 T00290008
K0S9 
16nm E 
211055Z AUTO 30004KT 10SM CLR 03/M02 A3008 RMK AO2
CWLM 
18nm N 
211000Z AUTO 36008KT 02/M02 RMK AO1 SLP188 T00231015 53020
CYWH 
18nm N 
210500Z VRB02KT 15SM SKC 02/M00 A2999 RMK LAST STFD OBS/NEXT 211400 UTC SLP157
CWPF 
19nm NW 
211045Z AUTO 34001KT 03/01 RMK AO1 T00280005
CWYJ 
19nm N 
211000Z AUTO 34003KT 03/M01 RMK AO1 SLP189 T00301012 53021
TAF
KCLM 
12nm W 
210525Z 2106/2206 22004KT P6SM SCT015 FM211800 08005KT P6SM SKC FM220300 VRB03KT P6SM SCT120 BKN250
CYWH 
18nm N 
201738Z 2018/2105 34008KT P6SM FEW015 BKN040 TEMPO 2018/2105 BKN015 OVC040 RMK NXT FCST BY 210000Z
NOTAMs
Click for the latest NOTAMs
NOTAMs are issued by the DoD/FAA and will open in a separate window not controlled by AirNav.

 

 
 

Would you like to see your business listed on this page?

 If your business provides an interesting product or service to pilots, flight crews, aircraft, or users of the Blue Ribbon Airport, you should consider listing it here.  To start the listing process, click on the button below
 
Add a business
 

Other Pages about Blue Ribbon Airport

www.blueribbonfarmsassoc.com
 
Update a link
 
Copyright © AirNav, LLC. All rights reserved. Privacy Policy  Contact